Time;durP1;ratioP1;P1;durP2;ratioP2;P2;SDS_P1;SDS_P2;PMS_P1;PMS_P2;Temp;Humidity;BMP_temperature;BMP_pressure;BME280_temperature;BME280_humidity;BME280_pressure;Samples;Min_cycle;Max_cycle;Signal;HPM_P1;HPM_P2
2021/05/12 00:02:25;;;;;;;2.78;2.10;;;10.70;99.90;;;;;;5091560;28;20027;-70
2021/05/12 00:04:50;;;;;;;2.80;2.40;;;10.80;99.90;;;;;;5093051;28;20032;-70
2021/05/12 00:07:16;;;;;;;3.10;2.40;;;10.70;99.90;;;;;;5092945;28;20073;-71
2021/05/12 00:09:42;;;;;;;2.20;2.00;;;10.80;99.90;;;;;;5092438;28;20024;-72
2021/05/12 00:12:08;;;;;;;1.75;1.65;;;10.80;99.90;;;;;;5094596;28;20034;-71
2021/05/12 00:14:36;;;;;;;3.00;2.22;;;10.70;99.90;;;;;;5092394;28;20042;-70
2021/05/12 00:17:03;;;;;;;2.33;2.13;;;10.70;99.90;;;;;;5093362;28;20442;-72
2021/05/12 00:19:30;;;;;;;3.45;2.10;;;10.80;99.90;;;;;;5077098;28;20423;-71
2021/05/12 00:22:15;;;;;;;2.35;1.90;;;10.70;99.90;;;;;;5094067;28;20024;-72
2021/05/12 00:24:41;;;;;;;3.10;2.05;;;10.80;99.90;;;;;;5093188;28;20028;-71
2021/05/12 00:27:08;;;;;;;2.92;1.80;;;10.80;99.90;;;;;;5094134;28;20525;-71
2021/05/12 00:29:34;;;;;;;2.20;2.00;;;10.80;99.90;;;;;;5093822;28;20036;-71
2021/05/12 00:32:00;;;;;;;2.70;2.10;;;10.80;99.90;;;;;;5093699;28;20062;-72
2021/05/12 00:34:25;;;;;;;4.88;2.28;;;10.80;99.90;;;;;;5093699;28;20060;-71
2021/05/12 00:36:51;;;;;;;2.53;2.15;;;10.80;99.90;;;;;;5092331;28;20085;-72
2021/05/12 00:39:17;;;;;;;2.22;1.88;;;10.80;99.90;;;;;;5092813;28;20043;-72
2021/05/12 00:41:43;;;;;;;2.08;1.98;;;10.80;99.90;;;;;;5093174;28;20097;-71
2021/05/12 00:44:18;;;;;;;2.33;2.00;;;10.80;99.90;;;;;;5093598;28;20108;-73
2021/05/12 00:46:51;;;;;;;3.78;2.55;;;10.80;99.90;;;;;;5093171;28;20036;-72
2021/05/12 00:49:17;;;;;;;4.80;2.00;;;10.80;99.90;;;;;;5092568;28;20461;-71
2021/05/12 00:51:44;;;;;;;4.63;2.55;;;10.80;99.90;;;;;;5093204;28;20134;-72
2021/05/12 00:54:11;;;;;;;1.60;1.50;;;10.80;99.90;;;;;;5093776;28;20107;-71
2021/05/12 00:56:40;;;;;;;3.72;1.80;;;10.80;99.90;;;;;;5091835;28;20032;-72
2021/05/12 00:59:06;;;;;;;3.90;1.77;;;10.70;99.90;;;;;;5082933;28;20057;-72
2021/05/12 01:01:32;;;;;;;3.55;1.85;;;10.60;99.90;;;;;;5072524;28;20020;-71
2021/05/12 01:03:57;;;;;;;2.25;1.42;;;10.60;99.90;;;;;;5055064;28;20523;-70
2021/05/12 01:06:29;;;;;;;3.72;1.63;;;10.60;99.90;;;;;;5073358;28;20025;-70
2021/05/12 01:08:55;;;;;;;3.10;1.70;;;10.60;99.90;;;;;;5073277;28;20484;-72
2021/05/12 01:11:21;;;;;;;3.33;1.80;;;10.50;99.90;;;;;;5073553;28;20040;-72
2021/05/12 01:13:48;;;;;;;2.40;1.67;;;10.50;99.90;;;;;;5066613;28;20032;-72
2021/05/12 01:16:15;;;;;;;7.88;2.05;;;10.40;99.90;;;;;;5072928;28;20044;-72
2021/05/12 01:18:41;;;;;;;4.00;1.73;;;10.40;99.90;;;;;;5053925;28;20037;-72
2021/05/12 01:21:08;;;;;;;1.30;1.20;;;10.40;99.90;;;;;;5072537;28;20481;-72
2021/05/12 01:23:43;;;;;;;1.83;1.27;;;10.30;99.90;;;;;;5071916;28;20052;-72
2021/05/12 01:26:14;;;;;;;1.40;1.20;;;10.40;99.90;;;;;;5073379;28;20111;-73
2021/05/12 01:28:45;;;;;;;4.90;1.38;;;10.40;99.90;;;;;;5061922;28;20032;-72
2021/05/12 01:31:18;;;;;;;2.60;1.10;;;10.30;99.90;;;;;;5072322;28;20433;-72
2021/05/12 01:33:45;;;;;;;2.67;1.45;;;10.30;99.90;;;;;;5071809;28;20032;-72
2021/05/12 01:36:12;;;;;;;1.02;1.00;;;10.30;99.90;;;;;;5072334;28;20024;-72
2021/05/12 01:38:41;;;;;;;2.60;0.90;;;10.20;99.90;;;;;;5071430;28;20024;-72
2021/05/12 01:41:08;;;;;;;2.58;1.23;;;10.20;99.90;;;;;;5054471;28;20421;-72
2021/05/12 01:43:35;;;;;;;4.30;1.33;;;10.20;99.90;;;;;;5053840;28;20112;-72
2021/05/12 01:46:01;;;;;;;1.95;1.40;;;10.20;99.90;;;;;;5072502;28;20029;-72
2021/05/12 01:48:27;;;;;;;4.28;1.50;;;10.10;99.90;;;;;;5072147;28;20424;-72
2021/05/12 01:50:53;;;;;;;1.35;1.10;;;10.10;99.90;;;;;;5071946;28;20103;-72
2021/05/12 01:53:18;;;;;;;2.45;1.50;;;10.10;99.90;;;;;;5072015;28;20115;-73
2021/05/12 01:55:46;;;;;;;3.90;1.95;;;10.10;99.90;;;;;;5053542;28;20025;-72
2021/05/12 01:58:12;;;;;;;4.95;1.63;;;10.10;99.90;;;;;;5074277;28;20123;-72
2021/05/12 02:00:43;;;;;;;2.47;1.58;;;10.10;99.90;;;;;;5071300;28;20124;-72
2021/05/12 02:03:10;;;;;;;4.28;1.90;;;10.10;99.90;;;;;;5072228;28;20032;-72
2021/05/12 02:05:37;;;;;;;3.60;1.95;;;10.10;99.90;;;;;;5071313;28;20063;-71
2021/05/12 02:08:06;;;;;;;5.80;2.72;;;10.00;99.90;;;;;;5049897;28;20043;-71
2021/05/12 02:10:32;;;;;;;6.40;2.47;;;10.00;99.90;;;;;;5052955;28;20035;-71
2021/05/12 02:12:58;;;;;;;3.70;2.10;;;10.00;99.90;;;;;;5071540;28;20024;-72
2021/05/12 02:15:24;;;;;;;5.85;2.88;;;10.00;99.90;;;;;;5071473;28;20457;-72
2021/05/12 02:17:51;;;;;;;2.50;2.30;;;10.00;99.90;;;;;;5071187;28;20028;-72
2021/05/12 02:20:19;;;;;;;5.70;2.88;;;10.00;99.90;;;;;;5071631;28;20040;-71
2021/05/12 02:22:45;;;;;;;3.40;2.70;;;10.00;99.90;;;;;;5052749;28;20414;-72
2021/05/12 02:25:11;;;;;;;4.65;2.85;;;10.00;99.90;;;;;;5053526;28;20055;-72
2021/05/12 02:27:37;;;;;;;6.97;3.33;;;10.00;99.90;;;;;;5053610;28;20064;-72
2021/05/12 02:30:06;;;;;;;5.35;3.15;;;10.00;99.90;;;;;;5070622;28;20032;-72
2021/05/12 02:32:31;;;;;;;7.53;3.20;;;9.90;99.90;;;;;;5070635;28;20107;-72
2021/05/12 02:34:58;;;;;;;6.78;3.08;;;9.90;99.90;;;;;;5053436;28;20132;-71
2021/05/12 02:37:25;;;;;;;5.00;3.47;;;10.00;99.90;;;;;;5071484;28;20082;-72
2021/05/12 02:39:52;;;;;;;6.70;3.58;;;9.90;99.90;;;;;;5070573;28;20037;-72
2021/05/12 02:42:18;;;;;;;3.88;3.03;;;9.90;99.90;;;;;;5070936;28;20029;-72
2021/05/12 02:44:44;;;;;;;4.00;3.60;;;9.90;99.90;;;;;;5052807;28;20359;-72
2021/05/12 02:47:10;;;;;;;7.60;3.78;;;9.90;99.90;;;;;;5053464;28;20032;-72
2021/05/12 02:49:35;;;;;;;5.53;3.55;;;9.90;99.90;;;;;;5052651;28;20041;-72
2021/05/12 02:52:02;;;;;;;6.82;3.53;;;9.90;99.90;;;;;;5076006;28;20021;-72
2021/05/12 02:54:28;;;;;;;7.15;3.88;;;9.90;99.90;;;;;;5071703;28;20035;-71
2021/05/12 02:56:54;;;;;;;8.95;4.30;;;9.90;99.90;;;;;;5071108;28;20377;-71
2021/05/12 02:59:20;;;;;;;5.38;3.90;;;9.90;99.90;;;;;;5070132;28;20048;-72
2021/05/12 03:01:45;;;;;;;6.28;3.72;;;9.90;99.90;;;;;;5086831;28;20047;-71
2021/05/12 03:04:11;;;;;;;7.47;4.25;;;9.90;99.90;;;;;;5084054;28;20469;-72
2021/05/12 03:06:37;;;;;;;7.40;4.32;;;10.00;99.90;;;;;;5090313;28;20412;-71
2021/05/12 03:09:05;;;;;;;5.00;4.50;;;10.00;99.90;;;;;;5091594;28;20465;-72
2021/05/12 03:11:31;;;;;;;7.03;4.60;;;10.00;99.90;;;;;;5088890;28;20085;-72
2021/05/12 03:13:57;;;;;;;9.05;5.13;;;10.00;99.90;;;;;;5091310;28;20051;-71
2021/05/12 03:16:23;;;;;;;10.25;5.47;;;10.00;99.90;;;;;;5091563;28;20465;-71
2021/05/12 03:18:48;;;;;;;8.48;5.60;;;9.90;99.90;;;;;;5090095;28;20066;-71
2021/05/12 03:21:14;;;;;;;10.38;5.88;;;10.00;99.90;;;;;;5091335;28;20477;-71
2021/05/12 03:23:40;;;;;;;12.77;6.45;;;10.00;99.90;;;;;;5090400;28;20036;-71
2021/05/12 03:26:06;;;;;;;8.60;6.22;;;10.00;99.90;;;;;;5091031;28;20024;-72
2021/05/12 03:28:31;;;;;;;10.27;6.72;;;10.00;99.90;;;;;;5088091;28;20504;-71
2021/05/12 03:30:57;;;;;;;10.88;5.93;;;10.00;99.90;;;;;;5088672;28;20048;-72
2021/05/12 03:33:22;;;;;;;11.18;6.97;;;10.00;99.90;;;;;;5088865;28;20476;-72
2021/05/12 03:35:49;;;;;;;11.82;7.40;;;10.00;99.90;;;;;;5088260;28;20032;-72
2021/05/12 03:38:14;;;;;;;11.65;7.25;;;9.90;99.90;;;;;;5054192;28;20033;-71
2021/05/12 03:40:41;;;;;;;12.95;7.60;;;9.90;99.90;;;;;;5087764;28;20043;-71
2021/05/12 03:43:07;;;;;;;14.10;8.05;;;9.90;99.90;;;;;;5075784;28;20036;-72
2021/05/12 03:45:33;;;;;;;12.73;8.15;;;9.90;99.90;;;;;;5091790;28;20046;-71
2021/05/12 03:47:59;;;;;;;13.63;8.10;;;9.90;99.90;;;;;;5092724;28;20033;-71
2021/05/12 03:50:26;;;;;;;10.95;8.05;;;10.00;99.90;;;;;;5092474;28;20131;-71
2021/05/12 03:52:52;;;;;;;12.77;9.32;;;10.00;99.90;;;;;;5090563;28;20027;-72
2021/05/12 03:55:18;;;;;;;12.70;8.80;;;10.00;99.90;;;;;;5091019;28;20382;-72
2021/05/12 03:57:44;;;;;;;13.13;8.57;;;10.00;99.90;;;;;;5088752;28;20032;-71
2021/05/12 04:00:11;;;;;;;14.52;9.55;;;10.00;99.90;;;;;;5093676;28;20044;-72
2021/05/12 04:02:37;;;;;;;13.15;8.95;;;10.00;99.90;;;;;;5092767;28;20028;-72
2021/05/12 04:05:04;;;;;;;14.07;8.88;;;10.00;99.90;;;;;;5093379;28;20368;-71
2021/05/12 04:07:29;;;;;;;12.40;8.32;;;10.00;99.90;;;;;;5092918;28;20035;-72
2021/05/12 04:09:55;;;;;;;15.20;9.43;;;10.10;99.90;;;;;;5093815;28;20028;-71
2021/05/12 04:12:21;;;;;;;14.50;9.50;;;10.10;99.90;;;;;;5094367;28;20111;-72
2021/05/12 04:14:47;;;;;;;16.75;10.93;;;10.10;99.90;;;;;;5094388;28;20107;-72
2021/05/12 04:17:13;;;;;;;15.93;9.38;;;10.10;99.90;;;;;;5099718;28;20029;-70
2021/05/12 04:19:38;;;;;;;15.10;10.07;;;10.10;99.90;;;;;;5092101;28;20036;-71
2021/05/12 04:22:04;;;;;;;12.48;9.30;;;10.10;99.90;;;;;;5067934;28;20047;-70
2021/05/12 04:24:30;;;;;;;13.27;8.93;;;10.10;99.90;;;;;;5092981;28;20017;-70
2021/05/12 04:26:56;;;;;;;16.75;9.68;;;10.10;99.90;;;;;;5093248;28;20408;-70
2021/05/12 04:29:22;;;;;;;17.40;9.60;;;10.10;99.90;;;;;;5093874;28;20095;-70
2021/05/12 04:31:48;;;;;;;17.00;9.65;;;10.10;99.90;;;;;;5092089;28;20028;-71
2021/05/12 04:34:13;;;;;;;14.95;8.40;;;10.20;99.90;;;;;;5094340;28;20362;-72
2021/05/12 04:36:39;;;;;;;15.02;8.35;;;10.20;99.90;;;;;;5093137;28;20056;-71
2021/05/12 04:39:06;;;;;;;13.77;8.88;;;10.20;99.90;;;;;;5094510;28;20504;-71
2021/05/12 04:41:32;;;;;;;18.65;9.20;;;10.10;99.90;;;;;;5083730;28;20047;-71
2021/05/12 04:43:59;;;;;;;10.13;8.00;;;10.20;99.90;;;;;;5092266;28;20143;-71
2021/05/12 04:46:25;;;;;;;9.75;7.90;;;10.20;99.90;;;;;;5094133;28;20024;-71
2021/05/12 04:48:52;;;;;;;10.88;6.82;;;10.20;99.90;;;;;;5093223;28;20083;-71
2021/05/12 04:51:19;;;;;;;11.05;7.18;;;10.20;99.90;;;;;;5085109;28;20024;-71
2021/05/12 04:53:45;;;;;;;12.88;6.72;;;10.30;99.90;;;;;;5092439;28;20020;-71
2021/05/12 04:56:11;;;;;;;11.68;6.63;;;10.30;99.90;;;;;;5093706;28;20544;-71
2021/05/12 04:58:36;;;;;;;14.05;7.18;;;10.30;99.90;;;;;;5087677;28;20064;-71
2021/05/12 05:01:02;;;;;;;12.68;7.95;;;10.30;99.90;;;;;;5073269;28;20024;-71
2021/05/12 05:03:28;;;;;;;12.32;7.20;;;10.30;99.90;;;;;;5073472;28;20103;-71
2021/05/12 05:05:54;;;;;;;10.55;6.45;;;10.30;99.90;;;;;;5072128;28;20156;-71
2021/05/12 05:08:19;;;;;;;13.48;6.82;;;10.30;99.90;;;;;;5073305;28;20036;-71
2021/05/12 05:10:47;;;;;;;11.38;7.72;;;10.30;99.90;;;;;;5072328;28;20470;-71
2021/05/12 05:13:13;;;;;;;11.55;6.28;;;10.30;99.90;;;;;;5072879;28;20032;-72
2021/05/12 05:15:39;;;;;;;11.82;5.43;;;10.40;99.90;;;;;;5072071;28;20082;-72
2021/05/12 05:18:05;;;;;;;8.75;5.20;;;10.30;99.90;;;;;;5072930;28;20453;-71
2021/05/12 05:20:32;;;;;;;11.32;5.30;;;10.40;99.90;;;;;;5072827;28;20043;-71
2021/05/12 05:22:58;;;;;;;8.73;5.53;;;10.40;99.90;;;;;;5072411;28;20036;-71
2021/05/12 05:25:24;;;;;;;6.85;4.68;;;10.40;99.90;;;;;;5073207;28;20032;-71
2021/05/12 05:27:49;;;;;;;7.60;5.05;;;10.40;99.90;;;;;;5071690;28;20021;-72
2021/05/12 05:30:15;;;;;;;11.50;5.93;;;10.40;99.90;;;;;;5073375;28;20036;-71
2021/05/12 05:32:41;;;;;;;11.30;5.25;;;10.30;99.90;;;;;;5054013;28;20025;-72
2021/05/12 05:35:07;;;;;;;8.70;4.95;;;10.30;99.90;;;;;;5072473;28;20032;-70
2021/05/12 05:37:33;;;;;;;10.65;5.15;;;10.30;99.90;;;;;;5072271;28;20044;-70
2021/05/12 05:39:59;;;;;;;7.97;4.68;;;10.30;99.90;;;;;;5072372;28;20036;-70
2021/05/12 05:42:25;;;;;;;8.25;4.93;;;10.30;99.90;;;;;;5074099;28;20032;-71
2021/05/12 05:44:51;;;;;;;8.18;4.85;;;10.30;99.90;;;;;;5047043;28;20044;-70
2021/05/12 05:47:17;;;;;;;6.88;4.65;;;10.30;99.90;;;;;;5070866;28;20469;-70
2021/05/12 05:49:45;;;;;;;8.52;3.88;;;10.30;99.90;;;;;;5071481;28;20482;-70
2021/05/12 05:52:10;;;;;;;8.60;4.15;;;10.40;99.90;;;;;;5054574;28;20036;-70
2021/05/12 05:54:36;;;;;;;7.85;4.03;;;10.30;99.90;;;;;;5053615;28;20461;-73
2021/05/12 05:57:05;;;;;;;7.15;4.00;;;10.30;99.90;;;;;;5053986;28;20146;-74
2021/05/12 05:59:32;;;;;;;5.63;3.90;;;10.30;99.90;;;;;;5071828;28;20063;-75
2021/05/12 06:01:58;;;;;;;6.30;4.05;;;10.30;99.90;;;;;;5071244;28;20024;-74
2021/05/12 06:04:25;;;;;;;7.53;4.25;;;10.40;99.90;;;;;;5071544;28;20029;-75
2021/05/12 06:06:51;;;;;;;9.15;4.45;;;10.40;99.90;;;;;;5071442;28;20086;-74
2021/05/12 06:09:18;;;;;;;10.65;4.25;;;10.40;99.90;;;;;;5072163;28;20461;-73
2021/05/12 06:11:44;;;;;;;8.75;4.25;;;10.40;99.90;;;;;;5071026;28;20035;-73
2021/05/12 06:14:09;;;;;;;9.43;4.65;;;10.50;99.90;;;;;;5049977;28;20389;-73
2021/05/12 06:16:35;;;;;;;8.30;4.13;;;10.40;99.90;;;;;;5069872;28;20032;-74
2021/05/12 06:19:01;;;;;;;9.18;4.03;;;10.40;99.90;;;;;;5053454;28;20379;-74
2021/05/12 06:21:27;;;;;;;7.60;4.00;;;10.50;99.90;;;;;;5053035;28;20075;-73
2021/05/12 06:23:52;;;;;;;9.15;3.40;;;10.50;99.90;;;;;;5070453;28;20119;-74
2021/05/12 06:26:19;;;;;;;5.93;4.07;;;10.50;99.90;;;;;;5070892;28;20477;-74
2021/05/12 06:28:46;;;;;;;7.18;3.45;;;10.50;99.90;;;;;;5070630;28;20029;-75
2021/05/12 06:31:13;;;;;;;7.20;3.20;;;10.60;99.90;;;;;;5053316;28;20029;-73
2021/05/12 06:33:42;;;;;;;5.80;3.40;;;10.60;99.90;;;;;;5070581;28;20396;-74
2021/05/12 06:36:08;;;;;;;4.82;2.92;;;10.60;99.90;;;;;;5071781;28;20044;-73
2021/05/12 06:38:34;;;;;;;6.87;3.00;;;10.60;99.90;;;;;;5050889;28;20025;-73
2021/05/12 06:41:00;;;;;;;6.90;3.58;;;10.60;99.90;;;;;;5048403;28;20055;-74
2021/05/12 06:43:27;;;;;;;6.93;3.10;;;10.70;99.90;;;;;;5071351;28;20039;-74
2021/05/12 06:45:53;;;;;;;8.90;3.72;;;10.70;99.90;;;;;;5070165;28;20025;-74
2021/05/12 06:48:18;;;;;;;3.20;2.90;;;10.70;99.90;;;;;;5052605;28;20039;-73
2021/05/12 06:50:45;;;;;;;6.38;2.75;;;10.80;99.90;;;;;;5070412;28;20036;-74
2021/05/12 06:53:11;;;;;;;5.45;3.22;;;10.80;99.90;;;;;;5071649;28;20074;-74
2021/05/12 06:55:37;;;;;;;3.67;2.45;;;10.80;99.90;;;;;;5070905;28;20032;-73
2021/05/12 06:58:05;;;;;;;5.18;2.80;;;10.80;99.90;;;;;;5070881;28;20063;-73
2021/05/12 07:00:31;;;;;;;6.88;2.92;;;10.90;99.90;;;;;;5033504;28;20545;-74
2021/05/12 07:02:57;;;;;;;7.95;2.85;;;10.90;99.90;;;;;;5050334;28;20020;-74
2021/05/12 07:05:23;;;;;;;4.53;2.47;;;10.80;99.90;;;;;;5071323;28;20074;-74
2021/05/12 07:07:49;;;;;;;9.23;2.20;;;10.90;99.90;;;;;;5052865;28;20086;-74
2021/05/12 07:10:16;;;;;;;4.13;2.35;;;10.90;99.90;;;;;;5071196;28;20028;-74
2021/05/12 07:12:42;;;;;;;3.97;2.50;;;10.90;99.90;;;;;;5070595;28;20031;-73
2021/05/12 07:15:10;;;;;;;8.77;2.85;;;11.00;99.90;;;;;;5053609;28;20028;-74
2021/05/12 07:17:36;;;;;;;8.52;2.60;;;11.00;99.90;;;;;;5075148;28;20057;-74
2021/05/12 07:20:03;;;;;;;4.78;2.55;;;11.00;99.90;;;;;;5074591;28;20083;-74
2021/05/12 07:22:29;;;;;;;6.97;2.22;;;11.00;99.90;;;;;;5073796;28;20037;-74
2021/05/12 07:24:55;;;;;;;4.00;2.20;;;11.00;99.90;;;;;;5056639;28;20027;-76
2021/05/12 07:27:25;;;;;;;3.25;2.38;;;11.10;99.90;;;;;;5075523;28;20073;-75
2021/05/12 07:29:50;;;;;;;5.22;2.20;;;11.10;99.90;;;;;;5073253;28;20529;-75
2021/05/12 07:32:16;;;;;;;4.57;1.92;;;11.20;99.90;;;;;;5071536;28;20108;-75
2021/05/12 07:34:42;;;;;;;4.53;2.05;;;11.20;99.90;;;;;;5066998;28;20059;-76
2021/05/12 07:37:08;;;;;;;6.00;2.20;;;11.20;99.90;;;;;;5056432;28;20487;-74
2021/05/12 07:39:35;;;;;;;5.63;2.35;;;11.30;99.90;;;;;;5056090;28;20063;-73
2021/05/12 07:42:07;;;;;;;6.85;1.77;;;11.30;99.90;;;;;;5073809;28;20041;-74
2021/05/12 07:44:32;;;;;;;5.57;2.22;;;11.30;99.90;;;;;;5074429;28;20036;-74
2021/05/12 07:46:58;;;;;;;4.65;2.38;;;11.30;99.90;;;;;;5055477;28;20028;-75
2021/05/12 07:49:24;;;;;;;6.38;2.03;;;11.30;99.90;;;;;;5074412;28;20028;-73
2021/05/12 07:51:50;;;;;;;7.65;2.20;;;11.40;99.90;;;;;;5039320;28;20082;-71
2021/05/12 07:54:15;;;;;;;5.00;2.08;;;11.40;99.90;;;;;;5074107;28;20104;-72
2021/05/12 07:56:41;;;;;;;6.85;1.90;;;11.30;99.90;;;;;;5055209;28;20047;-72
2021/05/12 07:59:07;;;;;;;5.47;2.47;;;11.30;99.90;;;;;;5073663;28;20622;-73
2021/05/12 08:01:39;;;;;;;6.65;2.10;;;11.20;99.90;;;;;;5055391;28;20029;-73
2021/05/12 08:04:05;;;;;;;4.75;2.08;;;11.20;99.90;;;;;;5073868;28;20045;-72
2021/05/12 08:06:30;;;;;;;3.95;1.90;;;11.20;99.90;;;;;;5073475;28;20109;-72
2021/05/12 08:08:56;;;;;;;4.13;2.20;;;11.10;99.90;;;;;;5052010;28;20036;-73
2021/05/12 08:11:22;;;;;;;2.38;1.92;;;11.10;99.90;;;;;;5073828;28;20099;-73
2021/05/12 08:13:49;;;;;;;4.00;2.17;;;11.10;99.90;;;;;;5073755;28;20430;-73
2021/05/12 08:16:14;;;;;;;7.53;2.55;;;11.10;99.90;;;;;;5056235;28;20020;-72
2021/05/12 08:18:40;;;;;;;7.28;2.25;;;11.10;99.90;;;;;;5073140;28;20380;-70
2021/05/12 08:21:06;;;;;;;4.78;1.83;;;11.00;99.90;;;;;;5073184;28;20029;-73
2021/05/12 08:23:32;;;;;;;3.35;1.83;;;11.00;99.90;;;;;;5073745;28;20059;-74
2021/05/12 08:25:58;;;;;;;8.02;2.22;;;11.00;99.90;;;;;;5072655;28;20386;-73
2021/05/12 08:28:24;;;;;;;4.90;2.42;;;11.00;99.90;;;;;;5037692;28;20363;-72
2021/05/12 08:30:50;;;;;;;3.40;1.75;;;11.00;99.90;;;;;;5053709;28;20090;-73
2021/05/12 08:33:16;;;;;;;6.53;2.13;;;11.10;99.90;;;;;;5072283;28;20059;-74
2021/05/12 08:35:45;;;;;;;3.90;1.90;;;11.10;99.90;;;;;;5074664;28;20120;-71
2021/05/12 08:38:20;;;;;;;7.07;1.88;;;11.10;99.90;;;;;;5056126;28;20028;-74
2021/05/12 08:40:47;;;;;;;5.47;2.35;;;11.10;99.90;;;;;;5073002;28;20155;-73
2021/05/12 08:43:14;;;;;;;6.45;2.00;;;11.20;99.90;;;;;;5074163;28;20130;-73
2021/05/12 08:45:44;;;;;;;2.65;1.65;;;11.30;99.90;;;;;;5072682;28;20024;-69
2021/05/12 08:48:15;;;;;;;8.05;2.40;;;11.30;99.90;;;;;;5073312;28;20479;-73
2021/05/12 08:50:42;;;;;;;4.22;1.52;;;11.40;99.90;;;;;;5054877;28;20051;-69
2021/05/12 08:53:08;;;;;;;7.93;2.20;;;11.50;99.90;;;;;;5054888;28;20462;-71
2021/05/12 08:55:34;;;;;;;6.43;2.17;;;11.50;99.90;;;;;;5073023;28;20020;-72
2021/05/12 08:58:00;;;;;;;4.07;1.67;;;11.50;99.90;;;;;;5054648;28;20213;-73
2021/05/12 09:00:27;;;;;;;3.15;1.90;;;11.50;99.90;;;;;;5072820;28;20051;-72
2021/05/12 09:02:53;;;;;;;2.22;1.95;;;11.60;99.90;;;;;;5063440;28;20024;-73
2021/05/12 09:05:20;;;;;;;8.32;2.17;;;11.60;99.90;;;;;;5072707;28;20385;-72
2021/05/12 09:07:46;;;;;;;5.68;2.00;;;11.60;99.90;;;;;;5072298;28;20107;-72
2021/05/12 09:10:13;;;;;;;3.22;2.00;;;11.70;99.90;;;;;;5073248;28;20032;-72
2021/05/12 09:12:53;;;;;;;5.38;2.10;;;11.70;99.90;;;;;;5072375;28;20028;-73
2021/05/12 09:15:21;;;;;;;3.47;2.13;;;11.80;99.90;;;;;;5055004;28;20032;-73
2021/05/12 09:17:49;;;;;;;6.97;2.78;;;11.80;99.90;;;;;;5063700;28;20024;-73
2021/05/12 09:20:20;;;;;;;4.97;2.00;;;11.90;99.90;;;;;;5072473;28;20059;-74
2021/05/12 09:23:15;;;;;;;5.07;2.15;;;11.90;99.90;;;;;;5064110;28;20033;-74
2021/05/12 09:25:52;;;;;;;4.07;2.10;;;12.00;99.90;;;;;;5052134;28;20079;-69
2021/05/12 09:28:20;;;;;;;10.18;2.47;;;12.00;99.90;;;;;;5072503;28;20373;-74
2021/05/12 09:30:48;;;;;;;5.63;2.08;;;12.00;99.90;;;;;;5071533;28;20028;-73
2021/05/12 09:33:31;;;;;;;3.88;1.63;;;11.90;99.90;;;;;;5072528;28;20111;-73
2021/05/12 09:35:58;;;;;;;2.20;1.70;;;11.90;99.90;;;;;;5071569;28;20074;-72
2021/05/12 09:38:26;;;;;;;5.03;2.25;;;11.80;99.90;;;;;;5071961;28;20028;-74
2021/05/12 09:41:01;;;;;;;9.43;2.42;;;11.80;99.90;;;;;;5053077;28;20071;-74
2021/05/12 09:43:29;;;;;;;8.23;2.25;;;11.80;99.90;;;;;;5072432;28;20115;-73
2021/05/12 09:46:37;;;;;;;4.15;2.03;;;11.80;99.90;;;;;;5070711;28;20100;-74
2021/05/12 09:49:03;;;;;;;11.43;3.45;;;11.80;99.90;;;;;;4989790;28;20038;-73
2021/05/12 09:51:33;;;;;;;8.23;2.40;;;11.90;99.90;;;;;;4990679;28;20042;-74
2021/05/12 09:54:22;;;;;;;5.15;2.00;;;11.90;99.90;;;;;;4989705;28;20070;-73
2021/05/12 09:56:56;;;;;;;7.50;2.28;;;11.90;99.90;;;;;;4989927;28;20039;-74
2021/05/12 09:59:30;;;;;;;6.65;2.33;;;11.90;99.90;;;;;;4992672;28;20065;-75
2021/05/12 10:02:05;;;;;;;6.38;2.30;;;11.80;99.90;;;;;;4989110;28;20210;-74
2021/05/12 10:04:39;;;;;;;3.97;2.10;;;11.80;99.90;;;;;;4989989;28;20085;-74
2021/05/12 10:07:23;;;;;;;3.88;2.10;;;11.90;99.90;;;;;;4989651;28;20543;-74
2021/05/12 10:09:51;;;;;;;3.22;1.98;;;11.90;99.90;;;;;;4972896;28;20034;-73
2021/05/12 10:12:17;;;;;;;11.18;2.63;;;11.90;99.90;;;;;;4973669;28;20526;-74
2021/05/12 10:14:46;;;;;;;9.95;2.70;;;12.00;99.90;;;;;;4988737;28;20070;-70
2021/05/12 10:17:14;;;;;;;7.35;2.58;;;12.00;99.90;;;;;;4988133;28;20026;-73
2021/05/12 10:19:41;;;;;;;5.78;1.92;;;11.90;99.90;;;;;;5023426;28;20508;-70
2021/05/12 10:22:08;;;;;;;6.18;2.20;;;11.90;99.90;;;;;;5070885;28;20032;-73
2021/05/12 10:24:36;;;;;;;4.72;2.20;;;11.90;99.90;;;;;;5071179;28;20024;-72
2021/05/12 10:27:08;;;;;;;7.75;2.35;;;12.00;99.90;;;;;;5070686;28;20024;-74
2021/05/12 10:29:36;;;;;;;4.90;2.30;;;12.00;99.90;;;;;;5069092;28;20036;-73
2021/05/12 10:32:15;;;;;;;7.80;2.28;;;12.00;99.90;;;;;;5052502;28;20056;-74
2021/05/12 10:34:40;;;;;;;3.70;2.13;;;12.10;99.90;;;;;;5071148;28;20024;-70
2021/05/12 10:37:21;;;;;;;4.95;2.00;;;12.10;99.90;;;;;;5069819;28;20040;-74
2021/05/12 10:39:59;;;;;;;3.75;1.75;;;12.10;99.90;;;;;;5052381;28;20037;-73
2021/05/12 10:42:52;;;;;;;4.40;2.08;;;12.10;99.90;;;;;;5071511;28;20028;-74
2021/05/12 10:45:30;;;;;;;4.78;2.10;;;12.20;99.90;;;;;;5071307;28;20028;-73
2021/05/12 10:47:56;;;;;;;4.72;2.15;;;12.20;99.90;;;;;;5052484;28;20025;-74
2021/05/12 10:50:50;;;;;;;5.05;1.77;;;12.10;99.90;;;;;;5053001;28;20024;-74
2021/05/12 10:53:21;;;;;;;3.45;1.98;;;12.10;99.90;;;;;;5065497;28;20134;-74
2021/05/12 10:55:56;;;;;;;3.97;1.92;;;12.10;99.90;;;;;;5070385;28;20028;-73
2021/05/12 10:58:24;;;;;;;5.93;2.20;;;12.10;99.90;;;;;;5071015;28;20028;-73
2021/05/12 11:01:00;;;;;;;3.95;2.28;;;12.10;99.90;;;;;;5052033;28;20055;-73
2021/05/12 11:03:46;;;;;;;7.78;2.50;;;12.10;99.90;;;;;;5066687;28;20033;-73
2021/05/12 11:06:12;;;;;;;7.05;2.55;;;12.10;99.90;;;;;;5070265;28;20483;-73
2021/05/12 11:09:08;;;;;;;6.10;2.75;;;12.10;99.90;;;;;;5070936;28;20052;-73
2021/05/12 11:11:48;;;;;;;10.90;2.78;;;12.10;99.70;;;;;;5066249;28;20111;-73
2021/05/12 11:14:34;;;;;;;5.28;2.10;;;12.10;99.00;;;;;;5070671;28;20443;-73
2021/05/12 11:17:15;;;;;;;5.43;2.13;;;12.10;99.90;;;;;;5069919;28;20033;-74
2021/05/12 11:19:40;;;;;;;7.97;2.20;;;12.10;99.90;;;;;;5052987;28;20033;-75
2021/05/12 11:24:59;;;;;;;6.72;3.03;;;12.40;99.40;;;;;;5069762;28;20075;-73
2021/05/12 11:32:25;;;;;;;3.60;1.88;;;12.70;97.90;;;;;;5061821;28;20389;-73
2021/05/12 11:34:51;;;;;;;4.50;1.67;;;12.90;96.00;;;;;;5051898;28;20489;-73
2021/05/12 11:37:23;;;;;;;5.25;1.98;;;13.00;96.70;;;;;;5070445;28;20074;-75
2021/05/12 11:39:52;;;;;;;4.55;1.92;;;13.30;94.50;;;;;;5070746;28;20039;-74
2021/05/12 11:42:31;;;;;;;4.80;2.03;;;13.50;92.40;;;;;;5070932;28;20107;-75
2021/05/12 11:45:10;;;;;;;5.88;2.03;;;13.70;93.40;;;;;;5052085;28;20040;-73
2021/05/12 11:47:41;;;;;;;6.40;2.30;;;13.80;92.60;;;;;;5071147;28;20020;-73
2021/05/12 11:50:21;;;;;;;4.10;1.50;;;14.00;91.70;;;;;;5052206;28;20040;-71
2021/05/12 11:52:47;;;;;;;5.93;2.65;;;14.10;90.30;;;;;;5068601;28;20108;-71
2021/05/12 11:55:13;;;;;;;3.20;2.20;;;14.10;90.20;;;;;;5069868;28;20028;-73
2021/05/12 11:57:39;;;;;;;9.57;2.88;;;14.20;88.00;;;;;;5070362;28;20407;-75
2021/05/12 12:00:15;;;;;;;4.82;2.00;;;14.30;86.40;;;;;;5081340;28;20043;-74
2021/05/12 12:02:41;;;;;;;6.63;1.80;;;14.40;83.60;;;;;;5075190;28;20024;-73
2021/05/12 12:05:08;;;;;;;5.53;1.40;;;14.40;85.70;;;;;;5084952;28;20073;-73
2021/05/12 12:07:33;;;;;;;5.38;2.25;;;14.40;88.20;;;;;;5094227;28;20511;-73
2021/05/12 12:10:01;;;;;;;7.55;2.50;;;14.40;88.10;;;;;;5095303;28;20134;-73
2021/05/12 12:12:26;;;;;;;7.88;2.08;;;14.60;88.60;;;;;;5094517;28;20035;-73
2021/05/12 12:15:06;;;;;;;6.80;2.05;;;14.60;81.80;;;;;;5093742;28;20028;-74
2021/05/12 12:17:32;;;;;;;5.13;1.98;;;14.60;82.50;;;;;;5093709;28;20047;-73
2021/05/12 12:20:03;;;;;;;5.90;2.15;;;14.60;86.00;;;;;;5093207;28;20477;-73
2021/05/12 12:22:28;;;;;;;2.67;1.20;;;14.60;83.60;;;;;;5094485;28;20047;-73
2021/05/12 12:24:55;;;;;;;3.40;1.88;;;14.60;85.70;;;;;;5092589;28;20427;-74
2021/05/12 12:27:21;;;;;;;3.92;1.65;;;14.70;86.40;;;;;;5092508;28;20115;-73
2021/05/12 12:29:50;;;;;;;4.78;1.77;;;14.80;84.90;;;;;;5093599;28;20107;-69
2021/05/12 12:32:16;;;;;;;4.32;1.55;;;14.80;83.50;;;;;;5094365;28;20465;-74
2021/05/12 12:34:46;;;;;;;7.53;2.17;;;14.90;84.30;;;;;;5094183;28;20035;-74
2021/05/12 12:37:17;;;;;;;4.72;1.95;;;15.00;84.90;;;;;;5092412;28;20542;-73
2021/05/12 12:39:55;;;;;;;5.13;2.03;;;15.10;81.40;;;;;;5092365;28;20040;-74
2021/05/12 12:42:30;;;;;;;5.10;1.90;;;15.10;82.30;;;;;;5094141;28;20024;-74
2021/05/12 12:44:57;;;;;;;6.60;1.98;;;15.10;84.10;;;;;;5092259;28;20520;-73
2021/05/12 12:47:24;;;;;;;7.20;2.20;;;15.10;81.80;;;;;;5093150;28;20024;-74
2021/05/12 12:49:59;;;;;;;3.17;1.65;;;15.00;87.10;;;;;;5092124;28;20044;-73
2021/05/12 12:52:29;;;;;;;5.22;2.10;;;14.80;86.40;;;;;;5092680;28;20043;-73
2021/05/12 12:55:04;;;;;;;3.05;2.40;;;14.80;86.80;;;;;;5092681;28;20023;-73
2021/05/12 12:57:40;;;;;;;7.90;2.08;;;14.80;83.80;;;;;;5089815;28;20037;-72
2021/05/12 13:00:27;;;;;;;4.38;2.08;;;14.80;83.70;;;;;;5071347;28;20075;-73